Time;durP1;ratioP1;P1;durP2;ratioP2;P2;SDS_P1;SDS_P2;PMS_P1;PMS_P2;Temp;Humidity;BMP_temperature;BMP_pressure;BME280_temperature;BME280_humidity;BME280_pressure;Samples;Min_cycle;Max_cycle;Signal;HPM_P1;HPM_P2
2023/06/14 00:01:38;;;;;;;12.38;9.63;;;;;;;16.30;100.00;63682.16;5119901;28;20233;-75
2023/06/14 00:04:08;;;;;;;12.88;10.10;;;;;;;16.37;100.00;63695.13;5127769;28;20270;-76
2023/06/14 00:06:35;;;;;;;12.30;9.73;;;;;;;16.32;100.00;63684.78;5116787;28;20211;-75
2023/06/14 00:09:02;;;;;;;12.25;10.00;;;;;;;16.37;100.00;63695.13;5131208;28;20198;-77
2023/06/14 00:11:30;;;;;;;11.82;10.07;;;;;;;16.40;100.00;63695.66;5126691;28;20460;-76
2023/06/14 00:14:00;;;;;;;15.43;10.35;;;;;;;16.38;100.00;63691.00;5127150;28;20202;-77
2023/06/14 00:16:27;;;;;;;11.20;8.88;;;;;;;16.23;100.00;63683.13;5117767;28;20268;-76
2023/06/14 00:18:53;;;;;;;10.68;8.90;;;;;;;16.35;100.00;63693.03;5114591;28;20203;-75
2023/06/14 00:21:20;;;;;;;12.38;9.10;;;;;;;16.44;100.00;63694.16;5126723;28;20228;-76
2023/06/14 00:23:47;;;;;;;11.77;8.43;;;;;;;16.40;100.00;63693.09;5139231;27;20224;-77
2023/06/14 00:26:14;;;;;;;11.02;7.60;;;;;;;16.42;100.00;63692.09;5110365;28;20504;-75
2023/06/14 00:28:41;;;;;;;9.43;7.97;;;;;;;16.29;100.00;63679.06;5124668;28;20205;-75
2023/06/14 00:31:09;;;;;;;8.40;7.70;;;;;;;16.33;100.00;63685.28;5127154;28;20214;-77
2023/06/14 00:33:36;;;;;;;8.70;7.72;;;;;;;16.29;100.00;63684.22;5119245;28;20265;-77
2023/06/14 00:36:03;;;;;;;11.07;7.28;;;;;;;16.37;100.00;63689.44;5106865;28;20312;-76
2023/06/14 00:38:30;;;;;;;9.25;7.38;;;;;;;16.44;100.00;63694.69;5124401;28;20273;-77
2023/06/14 00:40:57;;;;;;;9.07;8.05;;;;;;;16.38;100.00;63688.44;5127576;28;20220;-76
2023/06/14 00:43:24;;;;;;;7.93;7.13;;;;;;;16.50;100.00;63706.09;5120527;28;20302;-77
2023/06/14 00:45:52;;;;;;;9.70;7.55;;;;;;;16.50;100.00;63700.94;5106693;28;20199;-76
2023/06/14 00:48:21;;;;;;;8.15;7.35;;;;;;;16.58;100.00;63713.91;5107217;28;20221;-76
2023/06/14 00:50:50;;;;;;;10.75;7.35;;;;;;;16.63;100.00;63719.09;5109808;28;20222;-75
2023/06/14 00:53:18;;;;;;;7.57;6.80;;;;;;;16.41;100.00;63691.06;5127879;28;20221;-75
2023/06/14 00:55:45;;;;;;;8.18;7.18;;;;;;;16.52;100.00;63702.50;5124594;28;20191;-76
2023/06/14 00:58:12;;;;;;;10.35;7.25;;;;;;;16.53;100.00;63708.69;5128551;28;20241;-75
2023/06/14 01:00:39;;;;;;;6.35;5.70;;;;;;;16.52;100.00;63705.59;5124248;28;20199;-75
2023/06/14 01:03:07;;;;;;;9.23;7.78;;;;;;;16.52;100.00;63705.06;5105915;28;20245;-74
2023/06/14 01:05:36;;;;;;;7.53;6.82;;;;;;;16.51;100.00;63702.00;5106902;28;20202;-77
2023/06/14 01:08:16;;;;;;;7.03;6.38;;;;;;;16.49;100.00;63707.63;5115668;28;20535;-77
2023/06/14 01:10:52;;;;;;;7.55;6.78;;;;;;;16.45;100.00;63698.28;5123632;28;20209;-76
2023/06/14 01:13:22;;;;;;;8.00;7.10;;;;;;;16.45;100.00;63700.88;5124935;28;20214;-75
2023/06/14 01:15:52;;;;;;;11.43;7.72;;;;;;;16.38;100.00;63693.06;5126523;28;20191;-77
2023/06/14 01:18:19;;;;;;;8.27;7.28;;;;;;;16.41;100.00;63691.06;5113972;28;20281;-76
2023/06/14 01:20:50;;;;;;;7.93;7.13;;;;;;;16.18;100.00;63668.16;5127312;28;20190;-75
2023/06/14 01:23:19;;;;;;;7.68;6.88;;;;;;;16.42;100.00;63695.19;5119962;28;20231;-76
2023/06/14 01:25:46;;;;;;;6.90;6.28;;;;;;;16.39;100.00;63691.53;5088081;28;20199;-77
2023/06/14 01:28:16;;;;;;;9.18;6.57;;;;;;;16.37;100.00;63689.97;5123358;28;20216;-75
2023/06/14 01:30:47;;;;;;;7.80;7.00;;;;;;;16.37;100.00;63686.88;5148771;28;20189;-74
2023/06/14 01:33:16;;;;;;;8.55;6.35;;;;;;;16.33;100.00;63683.25;5131876;28;20274;-77
2023/06/14 01:35:48;;;;;;;7.35;6.75;;;;;;;16.37;100.00;63689.97;5123553;28;20202;-78
2023/06/14 01:38:17;;;;;;;6.30;5.72;;;;;;;16.35;100.00;63685.31;5127074;28;20230;-76
2023/06/14 01:40:45;;;;;;;8.00;6.63;;;;;;;16.37;100.00;63686.88;5126060;28;20479;-76
2023/06/14 01:43:14;;;;;;;6.53;5.85;;;;;;;16.35;100.00;63682.22;5130100;28;20221;-74
2023/06/14 01:45:43;;;;;;;6.57;6.10;;;;;;;16.33;100.00;63687.84;5136969;28;20207;-75
2023/06/14 01:48:10;;;;;;;6.50;6.00;;;;;;;16.31;100.00;63683.22;5105497;28;20219;-75
2023/06/14 01:50:37;;;;;;;7.18;6.53;;;;;;;16.29;100.00;63681.13;5109263;28;20196;-75
2023/06/14 01:53:07;;;;;;;10.65;6.80;;;;;;;16.22;100.00;63674.38;5105617;28;20429;-76
2023/06/14 01:55:37;;;;;;;6.32;5.80;;;;;;;16.17;100.00;63667.13;5121460;28;20214;-75
2023/06/14 01:58:05;;;;;;;6.75;6.10;;;;;;;16.14;100.00;63668.63;5129821;28;20214;-74
2023/06/14 02:00:32;;;;;;;6.57;5.90;;;;;;;16.09;100.00;63663.41;5133047;28;20201;-77
2023/06/14 02:03:01;;;;;;;8.07;6.88;;;;;;;16.00;100.00;63648.91;5113949;28;20469;-77
2023/06/14 02:05:28;;;;;;;6.63;6.13;;;;;;;15.90;100.00;63639.03;5112184;28;20230;-76
2023/06/14 02:07:55;;;;;;;8.20;5.90;;;;;;;15.78;100.00;63628.63;5110574;28;20237;-76
2023/06/14 02:10:23;;;;;;;6.55;5.95;;;;;;;15.62;100.00;63614.53;5109883;28;20195;-77
2023/06/14 02:12:52;;;;;;;7.95;7.25;;;;;;;15.73;100.00;63626.50;5108120;28;20257;-75
2023/06/14 02:15:21;;;;;;;9.32;6.90;;;;;;;15.64;100.00;63614.59;5111852;28;20192;-77
2023/06/14 02:17:49;;;;;;;7.63;6.95;;;;;;;15.59;100.00;63603.72;5112892;28;20239;-75
2023/06/14 02:20:16;;;;;;;9.38;6.35;;;;;;;15.52;100.00;63602.09;5113513;28;20263;-77
2023/06/14 02:22:44;;;;;;;8.65;7.15;;;;;;;15.43;100.00;63592.75;5126458;28;20286;-77
2023/06/14 02:25:11;;;;;;;7.38;6.68;;;;;;;15.39;100.00;63586.00;5112547;28;20508;-77
2023/06/14 02:27:38;;;;;;;7.50;6.80;;;;;;;15.33;100.00;63587.47;5107961;28;20216;-77
2023/06/14 02:30:06;;;;;;;7.50;6.50;;;;;;;15.35;100.00;63583.88;5118439;28;20271;-75
2023/06/14 02:32:35;;;;;;;7.50;6.80;;;;;;;15.33;100.00;63582.34;5131788;28;20265;-75
2023/06/14 02:35:02;;;;;;;7.72;6.93;;;;;;;15.30;100.00;63581.78;5127262;28;20202;-77
2023/06/14 02:37:30;;;;;;;7.32;6.63;;;;;;;15.23;100.00;63566.81;5129421;28;20454;-77
2023/06/14 02:39:57;;;;;;;6.47;5.82;;;;;;;15.27;100.00;63576.09;5128532;28;20203;-77
2023/06/14 02:42:24;;;;;;;7.40;6.70;;;;;;;15.30;100.00;63576.13;5125401;28;20276;-75
2023/06/14 02:44:51;;;;;;;7.55;6.78;;;;;;;15.32;100.00;63581.31;5148293;27;20503;-76
2023/06/14 02:47:19;;;;;;;7.10;6.50;;;;;;;15.28;100.00;63579.72;5152161;27;20214;-77
2023/06/14 02:49:47;;;;;;;9.90;6.97;;;;;;;15.35;100.00;63584.41;5124210;28;20342;-75
2023/06/14 02:52:14;;;;;;;10.15;7.38;;;;;;;15.38;100.00;63584.44;5130763;28;20303;-75
2023/06/14 02:54:41;;;;;;;7.75;7.05;;;;;;;15.35;100.00;63583.88;5130705;28;20191;-76
2023/06/14 02:57:08;;;;;;;7.60;6.22;;;;;;;15.44;100.00;63593.78;5128705;28;20237;-75
2023/06/14 02:59:36;;;;;;;6.80;6.20;;;;;;;15.49;100.00;63599.00;5125919;28;20217;-76
2023/06/14 03:02:04;;;;;;;7.25;6.60;;;;;;;15.40;100.00;63592.19;5132122;28;20207;-75
2023/06/14 03:04:36;;;;;;;8.82;6.97;;;;;;;15.44;100.00;63595.84;5130434;28;20430;-79
2023/06/14 03:07:08;;;;;;;6.88;6.28;;;;;;;15.51;100.00;63603.63;5125970;28;20268;-76
2023/06/14 03:09:36;;;;;;;8.32;7.50;;;;;;;15.59;100.00;63606.81;5117388;28;20196;-77
2023/06/14 03:12:04;;;;;;;7.43;6.78;;;;;;;15.66;100.00;63608.97;5110767;28;20239;-77
2023/06/14 03:14:32;;;;;;;9.90;6.88;;;;;;;15.72;100.00;63625.47;5108498;28;20187;-75
2023/06/14 03:17:00;;;;;;;7.85;7.03;;;;;;;15.78;100.00;63634.28;5117083;28;20212;-77
2023/06/14 03:19:27;;;;;;;9.52;6.80;;;;;;;15.87;100.00;63632.84;5114723;28;20187;-77
2023/06/14 03:21:56;;;;;;;8.65;7.35;;;;;;;15.95;100.00;63646.28;5128968;28;20222;-77
2023/06/14 03:24:27;;;;;;;11.23;7.50;;;;;;;15.98;100.00;63651.97;5127272;28;20250;-76
2023/06/14 03:26:54;;;;;;;7.00;6.30;;;;;;;16.12;100.00;63663.97;5115591;28;20218;-76
2023/06/14 03:29:21;;;;;;;7.95;6.93;;;;;;;16.21;100.00;63670.75;5129276;28;20194;-77
2023/06/14 03:31:59;;;;;;;7.47;6.78;;;;;;;16.29;100.00;63673.44;5113585;28;20211;-76
2023/06/14 03:34:26;;;;;;;8.25;7.43;;;;;;;16.41;100.00;63691.56;5118026;28;20365;-77
2023/06/14 03:36:52;;;;;;;8.95;7.00;;;;;;;16.44;100.00;63691.59;5132470;28;20206;-75
2023/06/14 03:39:20;;;;;;;7.85;7.03;;;;;;;16.47;100.00;63702.97;5125851;28;20203;-77
2023/06/14 03:41:49;;;;;;;13.35;6.95;;;;;;;16.52;100.00;63705.06;5122167;28;20215;-77
2023/06/14 03:44:18;;;;;;;7.57;6.75;;;;;;;16.56;100.00;63707.19;5133281;27;20243;-75
2023/06/14 03:46:46;;;;;;;8.52;7.75;;;;;;;16.60;100.00;63711.34;5131872;28;20222;-76
2023/06/14 03:49:13;;;;;;;10.23;7.63;;;;;;;16.67;100.00;63718.13;5130190;28;20226;-77
2023/06/14 03:51:40;;;;;;;7.70;7.00;;;;;;;16.72;100.00;63725.91;5108886;28;20219;-77
2023/06/14 03:54:08;;;;;;;8.45;7.50;;;;;;;16.77;100.00;63726.47;5123017;28;20191;-75
2023/06/14 03:56:35;;;;;;;7.38;6.78;;;;;;;16.73;100.00;63724.88;5127293;28;20222;-76
2023/06/14 03:59:04;;;;;;;8.57;7.78;;;;;;;16.85;100.00;63736.84;5127373;28;20221;-78
2023/06/14 04:01:31;;;;;;;14.52;9.05;;;;;;;16.89;100.00;63738.97;5123158;28;20231;-75
2023/06/14 04:03:58;;;;;;;11.70;9.05;;;;;;;16.97;100.00;63757.56;5135250;27;20230;-76
2023/06/14 04:06:31;;;;;;;9.27;8.35;;;;;;;16.99;100.00;63756.56;5126840;28;20460;-77
2023/06/14 04:09:03;;;;;;;9.25;7.68;;;;;;;17.01;100.00;63756.59;5125667;28;20365;-76
2023/06/14 04:11:31;;;;;;;11.70;8.18;;;;;;;17.02;100.00;63757.63;5120508;28;20214;-80
2023/06/14 04:13:58;;;;;;;12.00;7.85;;;;;;;17.03;100.00;63758.66;5121729;28;20203;-76
2023/06/14 04:16:27;;;;;;;9.60;7.78;;;;;;;17.15;100.00;63770.66;5120961;28;20225;-78
2023/06/14 04:18:55;;;;;;;9.98;8.98;;;;;;;17.20;100.00;63778.94;5128328;28;20203;-75
2023/06/14 04:21:23;;;;;;;12.63;8.77;;;;;;;17.19;100.00;63772.22;5113878;28;20268;-79
2023/06/14 04:23:52;;;;;;;11.60;9.02;;;;;;;17.17;100.00;63770.16;5115978;28;20457;-75
2023/06/14 04:26:21;;;;;;;13.13;9.93;;;;;;;17.02;100.00;63751.97;5128465;28;20202;-77
2023/06/14 04:28:49;;;;;;;10.95;9.82;;;;;;;17.00;100.00;63755.03;5126310;28;20504;-76
2023/06/14 04:31:16;;;;;;;13.82;9.55;;;;;;;16.87;100.00;63744.59;5128529;28;20206;-78
2023/06/14 04:33:46;;;;;;;12.23;9.82;;;;;;;16.89;100.00;63744.09;5130002;28;20198;-76
2023/06/14 04:36:17;;;;;;;16.55;9.95;;;;;;;17.00;100.00;63755.53;5124288;28;20206;-79
2023/06/14 04:38:46;;;;;;;11.48;9.80;;;;;;;17.03;100.00;63758.16;5124807;28;20240;-76
2023/06/14 04:41:13;;;;;;;9.80;8.80;;;;;;;16.99;100.00;63753.97;5123577;28;20222;-78
2023/06/14 04:43:40;;;;;;;10.77;9.60;;;;;;;16.87;100.00;63742.03;5137220;27;20221;-77
2023/06/14 04:46:10;;;;;;;12.82;9.60;;;;;;;16.97;100.00;63752.44;5122211;27;20432;-79
2023/06/14 04:48:40;;;;;;;12.23;10.27;;;;;;;17.03;100.00;63755.59;5131407;28;20197;-80
2023/06/14 04:51:09;;;;;;;11.93;10.38;;;;;;;17.09;100.00;63764.38;5127057;28;20191;-77
2023/06/14 04:53:36;;;;;;;10.48;9.25;;;;;;;16.99;100.00;63751.94;5109226;28;20203;-76
2023/06/14 04:56:03;;;;;;;11.30;9.63;;;;;;;17.01;100.00;63756.59;5120076;28;20203;-76
2023/06/14 04:58:31;;;;;;;10.80;9.68;;;;;;;17.01;100.00;63754.03;5127397;28;20203;-75
2023/06/14 05:00:59;;;;;;;14.30;10.40;;;;;;;17.00;100.00;63755.03;5127163;28;20205;-74
2023/06/14 05:03:27;;;;;;;10.73;9.63;;;;;;;17.18;100.00;63776.88;5127491;28;20299;-75
2023/06/14 05:05:54;;;;;;;11.98;10.57;;;;;;;17.23;100.00;63782.06;5107919;28;20278;-77
2023/06/14 05:08:24;;;;;;;14.13;10.25;;;;;;;17.22;100.00;63777.94;5112454;28;20230;-76
2023/06/14 05:10:51;;;;;;;11.63;9.80;;;;;;;17.40;100.00;63799.22;5126675;28;20194;-77
2023/06/14 05:13:18;;;;;;;15.75;10.82;;;;;;;17.43;100.00;63802.34;5122675;28;20219;-76
2023/06/14 05:15:45;;;;;;;11.98;10.18;;;;;;;17.41;100.00;63797.72;5108191;28;20195;-77
2023/06/14 05:18:15;;;;;;;14.25;11.02;;;;;;;17.36;100.00;63792.50;5108590;28;20223;-76
2023/06/14 05:20:42;;;;;;;14.25;10.45;;;;;;;17.36;100.00;63795.06;5120966;28;20239;-76
2023/06/14 05:23:14;;;;;;;14.05;11.18;;;;;;;17.30;100.00;63788.81;5109718;28;20235;-79
2023/06/14 05:25:44;;;;;;;12.98;9.82;;;;;;;17.45;100.00;63801.88;5105652;28;20195;-78
2023/06/14 05:28:12;;;;;;;11.65;9.90;;;;;;;17.58;100.00;63820.59;5123933;28;20245;-74
2023/06/14 05:30:40;;;;;;;15.48;9.82;;;;;;;17.45;100.00;63803.94;5128261;28;20231;-74
2023/06/14 05:33:07;;;;;;;12.05;10.25;;;;;;;17.39;100.00;63798.19;5124958;28;20218;-74
2023/06/14 05:35:34;;;;;;;11.85;9.88;;;;;;;17.32;100.00;63788.84;5121234;28;20404;-75
2023/06/14 05:38:01;;;;;;;11.73;10.48;;;;;;;17.33;100.00;63789.38;5127329;28;20215;-74
2023/06/14 05:40:28;;;;;;;14.18;10.32;;;;;;;17.29;100.00;63788.31;5123766;28;20202;-75
2023/06/14 05:42:57;;;;;;;14.90;10.48;;;;;;;17.31;100.00;63787.28;5127900;28;20277;-74
2023/06/14 05:45:24;;;;;;;16.25;11.32;;;;;;;17.60;100.00;63814.91;5131638;28;20198;-74
2023/06/14 05:47:54;;;;;;;15.15;10.80;;;;;;;17.72;100.00;63827.44;5125950;28;20295;-75
2023/06/14 05:50:21;;;;;;;15.43;10.50;;;;;;;17.66;100.00;63825.81;5125117;28;20194;-73
2023/06/14 05:52:48;;;;;;;17.52;10.55;;;;;;;17.68;100.00;63830.47;5124496;28;20227;-76
2023/06/14 05:55:17;;;;;;;15.50;11.48;;;;;;;17.86;100.00;63839.44;5106668;28;20233;-74
2023/06/14 05:57:44;;;;;;;16.55;11.93;;;;;;;17.95;100.00;63850.84;5104547;28;20278;-75
2023/06/14 06:00:15;;;;;;;14.68;12.13;;;;;;;17.79;100.00;63837.28;5107622;28;20512;-75
2023/06/14 06:02:43;;;;;;;15.20;12.23;;;;;;;18.03;100.00;63864.88;5110478;28;20222;-75
2023/06/14 06:05:10;;;;;;;14.48;12.15;;;;;;;17.80;100.00;63835.25;5124756;28;20252;-74
2023/06/14 06:07:39;;;;;;;19.67;12.52;;;;;;;18.16;100.00;63872.72;5126082;28;20229;-74
2023/06/14 06:10:07;;;;;;;19.08;12.82;;;;;;;18.14;100.00;63873.22;5124554;28;20326;-74
2023/06/14 06:12:34;;;;;;;17.63;12.52;;;;;;;18.10;100.00;63869.06;5123016;28;20219;-74
2023/06/14 06:28:45;;;;;;;22.20;13.38;;;;;;;17.55;100.00;63811.78;5317494;22;20467;-74
2023/06/14 06:31:12;;;;;;;19.30;13.60;;;;;;;17.50;100.00;63804.50;5063884;28;20205;-75
2023/06/14 06:33:39;;;;;;;18.92;13.93;;;;;;;17.47;100.00;63803.44;5047234;28;20225;-76
2023/06/14 06:36:06;;;;;;;18.65;13.55;;;;;;;17.60;100.00;63820.06;5045249;28;20230;-75
2023/06/14 06:38:33;;;;;;;15.95;12.65;;;;;;;17.70;100.00;63824.81;5056714;28;20232;-75
2023/06/14 06:41:00;;;;;;;16.00;12.57;;;;;;;17.61;100.00;63815.44;5066765;28;20500;-74
2023/06/14 06:43:27;;;;;;;17.67;12.95;;;;;;;17.45;100.00;63798.78;5078580;28;20230;-76
2023/06/14 06:45:55;;;;;;;17.02;11.85;;;;;;;17.60;100.00;63817.50;5087320;28;20192;-75
2023/06/14 06:48:22;;;;;;;16.75;12.77;;;;;;;17.69;100.00;63826.38;5065798;28;20205;-78
2023/06/14 06:50:49;;;;;;;17.75;12.55;;;;;;;17.89;100.00;63847.19;5068256;28;20197;-75
2023/06/14 06:53:18;;;;;;;15.18;11.70;;;;;;;17.92;100.00;63850.31;5070998;28;20260;-74
2023/06/14 06:55:45;;;;;;;15.82;11.68;;;;;;;17.81;100.00;63836.78;5065092;28;20209;-75
2023/06/14 06:58:13;;;;;;;16.35;10.68;;;;;;;17.68;100.00;63825.31;5069549;28;20197;-74
2023/06/14 07:00:40;;;;;;;16.30;11.68;;;;;;;18.07;100.00;63866.47;5067996;28;20241;-76
2023/06/14 07:03:09;;;;;;;17.58;11.18;;;;;;;18.59;100.00;63922.19;5066693;28;20256;-74
2023/06/14 07:05:36;;;;;;;17.45;12.18;;;;;;;19.05;100.00;63965.00;5069706;28;20216;-76
2023/06/14 07:08:03;;;;;;;15.60;11.05;;;;;;;19.26;100.00;63987.41;5067846;28;20266;-73
2023/06/14 07:10:30;;;;;;;12.40;10.40;;;;;;;19.16;100.00;63973.88;5066875;28;20221;-73
2023/06/14 07:12:57;;;;;;;15.30;11.68;;;;;;;19.17;100.00;63980.09;5068548;28;20204;-76
2023/06/14 07:15:24;;;;;;;14.68;12.05;;;;;;;19.44;100.00;64008.78;5050953;28;20287;-76
2023/06/14 07:17:52;;;;;;;15.20;11.85;;;;;;;19.32;100.00;63998.84;5048112;28;20197;-76
2023/06/14 07:20:22;;;;;;;13.27;11.20;;;;;;;19.54;100.00;64016.09;5064185;28;20224;-73
2023/06/14 07:22:49;;;;;;;14.60;11.02;;;;;;;19.79;100.00;64042.19;5065910;28;20201;-75
2023/06/14 07:25:19;;;;;;;17.33;11.90;;;;;;;19.96;100.00;64062.50;5061431;28;20236;-76
2023/06/14 07:27:47;;;;;;;18.50;11.73;;;;;;;20.01;100.00;64065.13;5060713;28;20249;-75
2023/06/14 07:30:14;;;;;;;13.60;11.13;;;;;;;20.51;100.00;64121.97;5055227;28;20255;-76
2023/06/14 07:32:41;;;;;;;13.23;11.65;;;;;;;20.94;100.00;64166.34;5059466;28;20196;-74
2023/06/14 07:35:09;;;;;;;13.18;10.35;;;;;;;21.13;100.00;64186.72;5058097;28;20229;-74
2023/06/14 07:37:37;;;;;;;11.80;10.38;;;;;;;20.61;100.00;64130.34;5057802;28;20223;-75
2023/06/14 07:40:06;;;;;;;13.57;11.52;;;;;;;20.54;100.00;64117.34;5052088;28;20228;-74
2023/06/14 07:42:35;;;;;;;17.70;11.68;;;;;;;20.49;100.00;64120.41;5051665;28;20228;-77
2023/06/14 07:45:02;;;;;;;12.73;10.43;;;;;;;20.62;100.00;64138.63;5058636;28;20258;-76
2023/06/14 07:47:29;;;;;;;17.58;12.10;;;;;;;21.01;100.00;64173.66;5056661;28;20212;-75
2023/06/14 07:49:56;;;;;;;15.85;11.23;;;;;;;20.63;100.00;64137.63;5055187;28;20229;-75
2023/06/14 07:52:23;;;;;;;13.80;10.75;;;;;;;20.43;100.00;64114.13;5057529;28;20204;-76
2023/06/14 07:54:52;;;;;;;13.27;10.60;;;;;;;20.97;100.00;64169.47;5051592;28;20364;-76
2023/06/14 07:57:20;;;;;;;12.20;10.45;;;;;;;21.30;100.00;64196.16;5052255;28;20219;-74
2023/06/14 07:59:46;;;;;;;12.00;9.18;;;;;;;21.37;100.00;64208.66;5053170;28;20220;-76
2023/06/14 08:02:14;;;;;;;13.68;10.10;;;;;;;21.67;100.00;64240.53;5053294;28;20197;-75
2023/06/14 08:04:41;;;;;;;14.15;9.77;;;;;;;21.55;100.00;64227.47;5059478;28;20263;-76
2023/06/14 08:07:08;;;;;;;15.30;9.70;;;;;;;21.14;100.00;64182.06;5055308;28;20205;-74
2023/06/14 08:09:37;;;;;;;11.95;9.82;;;;;;;21.21;100.00;64189.88;5058255;28;20229;-76
2023/06/14 08:12:09;;;;;;;11.52;10.10;;;;;;;21.26;100.00;64197.69;5052303;28;20505;-76
2023/06/14 08:14:37;;;;;;;13.70;9.00;;;;;;;21.13;99.29;64183.59;5057337;28;20222;-77
2023/06/14 08:17:04;;;;;;;12.50;9.63;;;;;;;21.31;98.59;64205.00;5062339;28;20197;-74
2023/06/14 08:19:31;;;;;;;9.65;8.65;;;;;;;21.67;96.73;64243.13;5053481;28;20217;-75
2023/06/14 08:21:58;;;;;;;11.10;8.50;;;;;;;22.09;93.80;64281.31;5053199;28;20200;-76
2023/06/14 08:24:26;;;;;;;10.07;9.02;;;;;;;22.08;90.42;64282.34;5053274;28;20234;-75
2023/06/14 08:26:53;;;;;;;8.98;7.97;;;;;;;21.95;90.34;64263.59;5049370;28;20232;-76
2023/06/14 08:29:22;;;;;;;8.63;7.90;;;;;;;22.10;91.83;64287.56;5056653;28;20262;-76
2023/06/14 08:31:49;;;;;;;13.32;8.50;;;;;;;22.30;87.37;64305.88;5070793;28;20254;-73
2023/06/14 08:34:16;;;;;;;8.88;8.07;;;;;;;22.63;86.11;64337.78;5076834;28;20599;-76
2023/06/14 08:36:43;;;;;;;10.32;9.32;;;;;;;22.66;86.90;64346.09;5074118;28;20503;-74
2023/06/14 08:39:11;;;;;;;11.05;9.75;;;;;;;23.05;85.67;64383.78;5055552;28;20220;-75
2023/06/14 08:41:38;;;;;;;10.15;9.15;;;;;;;23.25;84.56;64404.69;5051118;28;20216;-74
2023/06/14 08:44:07;;;;;;;10.15;9.07;;;;;;;23.08;83.71;64389.50;5054365;28;20470;-78
2023/06/14 08:46:38;;;;;;;9.55;8.05;;;;;;;22.42;86.04;64315.28;5049096;28;20200;-77
2023/06/14 08:49:07;;;;;;;9.55;8.52;;;;;;;22.26;88.68;64301.16;5050662;28;20217;-75
2023/06/14 08:51:36;;;;;;;18.70;10.00;;;;;;;22.15;93.81;64292.78;5052713;28;20197;-77
2023/06/14 08:54:04;;;;;;;17.25;11.05;;;;;;;22.01;95.92;64280.75;5049921;28;20254;-76
2023/06/14 08:56:33;;;;;;;12.77;10.85;;;;;;;22.12;95.02;64287.06;5054899;28;20205;-74
2023/06/14 08:59:02;;;;;;;14.77;11.75;;;;;;;22.48;92.75;64329.34;5055476;28;20286;-77
2023/06/14 09:01:31;;;;;;;12.65;11.25;;;;;;;22.85;89.09;64362.84;5055693;28;20197;-75
2023/06/14 09:03:59;;;;;;;11.85;10.65;;;;;;;22.75;89.72;64355.53;5054741;28;20294;-78
2023/06/14 09:06:28;;;;;;;13.57;10.43;;;;;;;22.72;92.38;64352.38;5057779;28;20217;-75
2023/06/14 09:08:56;;;;;;;10.98;9.80;;;;;;;22.52;89.51;64331.44;5045070;28;20217;-77
2023/06/14 09:11:25;;;;;;;14.32;9.73;;;;;;;22.76;91.78;64359.16;5059261;28;20560;-75
2023/06/14 09:13:52;;;;;;;14.45;10.02;;;;;;;23.05;88.23;64385.84;5049478;28;20218;-76
2023/06/14 09:16:20;;;;;;;14.95;11.32;;;;;;;23.01;86.73;64379.59;5055539;28;20457;-76
2023/06/14 09:18:48;;;;;;;14.60;11.73;;;;;;;23.30;84.07;64415.13;5050828;28;20307;-76
2023/06/14 09:21:18;;;;;;;13.93;10.57;;;;;;;23.67;83.65;64448.66;5055809;28;20435;-73
2023/06/14 09:23:47;;;;;;;12.45;10.13;;;;;;;24.14;79.59;64502.53;5056063;28;20228;-75
2023/06/14 09:26:15;;;;;;;12.98;10.55;;;;;;;23.94;81.14;64478.97;5053403;28;20567;-77
2023/06/14 09:28:43;;;;;;;11.90;9.90;;;;;;;24.24;79.67;64507.28;5052512;28;20572;-76
2023/06/14 09:31:11;;;;;;;12.80;10.50;;;;;;;24.53;77.75;64540.25;5057212;28;20510;-76
2023/06/14 09:33:38;;;;;;;12.75;10.98;;;;;;;24.00;77.65;64488.41;5050603;28;20533;-77
2023/06/14 09:36:10;;;;;;;11.80;10.60;;;;;;;24.00;80.27;64485.28;5061195;28;20385;-75
2023/06/14 09:38:41;;;;;;;10.68;9.68;;;;;;;24.21;79.15;64504.13;5050995;28;20225;-76
2023/06/14 09:41:08;;;;;;;12.30;10.15;;;;;;;24.42;80.64;64528.72;5054123;28;20189;-75
2023/06/14 09:43:35;;;;;;;11.80;10.60;;;;;;;24.36;75.50;64522.97;5047141;28;20472;-77
2023/06/14 09:46:02;;;;;;;11.98;9.88;;;;;;;23.94;76.41;64478.97;5053507;28;20229;-76
2023/06/14 09:48:29;;;;;;;14.13;10.23;;;;;;;24.03;75.27;64485.81;5051846;28;20205;-76
2023/06/14 09:50:57;;;;;;;10.98;9.88;;;;;;;23.66;79.01;64449.69;5053079;28;20207;-75
2023/06/14 09:53:26;;;;;;;14.13;10.90;;;;;;;23.83;75.17;64465.38;5058487;28;20504;-75
2023/06/14 09:55:58;;;;;;;11.93;10.32;;;;;;;23.82;75.83;64463.81;5053366;28;20403;-76
2023/06/14 09:58:29;;;;;;;11.45;10.27;;;;;;;24.11;76.70;64498.88;5053823;28;20231;-77
2023/06/14 10:00:56;;;;;;;13.45;10.40;;;;;;;24.32;71.98;64513.56;5051519;28;20204;-78
2023/06/14 10:03:29;;;;;;;11.80;10.65;;;;;;;23.99;76.45;64479.56;5053343;28;20279;-77
2023/06/14 10:06:01;;;;;;;11.07;9.98;;;;;;;23.79;76.05;64463.28;5055996;28;20213;-77
2023/06/14 10:08:33;;;;;;;13.77;10.45;;;;;;;23.50;79.73;64427.75;5050569;28;20287;-76
2023/06/14 10:11:01;;;;;;;13.88;11.13;;;;;;;23.11;79.36;64395.25;5049974;28;20256;-73
2023/06/14 10:13:32;;;;;;;14.85;11.05;;;;;;;23.03;77.42;64386.88;5050853;28;20212;-76
2023/06/14 10:16:06;;;;;;;15.32;10.95;;;;;;;23.19;83.16;64397.91;5053749;28;20197;-77
2023/06/14 10:18:43;;;;;;;13.77;10.73;;;;;;;23.46;86.05;64423.56;5052930;28;20200;-77
2023/06/14 10:21:17;;;;;;;12.25;10.68;;;;;;;23.75;83.59;64459.63;5058050;28;20216;-75
2023/06/14 10:23:48;;;;;;;11.35;9.98;;;;;;;24.06;76.18;64488.44;5054023;28;20224;-75
2023/06/14 10:26:22;;;;;;;11.68;10.48;;;;;;;24.05;79.27;64487.38;5054002;28;20453;-76
2023/06/14 10:29:07;;;;;;;11.52;10.32;;;;;;;23.94;76.08;64482.09;5055352;28;20228;-76
2023/06/14 10:31:42;;;;;;;11.63;9.85;;;;;;;24.08;75.66;64491.06;5062415;28;20414;-75
2023/06/14 10:34:09;;;;;;;12.38;9.63;;;;;;;24.08;73.15;64491.06;5057276;28;20244;-75
2023/06/14 10:36:36;;;;;;;15.35;10.68;;;;;;;24.08;72.71;64485.84;5064005;28;20213;-77
2023/06/14 10:39:08;;;;;;;12.48;11.20;;;;;;;23.80;74.40;64461.72;5061819;28;20225;-77
2023/06/14 10:41:39;;;;;;;13.95;10.00;;;;;;;24.24;71.92;64504.66;5053058;28;20204;-77
2023/06/14 10:44:41;;;;;;;11.25;9.80;;;;;;;24.81;66.11;64564.91;5061360;28;20216;-75
2023/06/14 10:47:10;;;;;;;11.93;9.07;;;;;;;24.80;68.52;64568.53;5051203;28;20430;-77
2023/06/14 10:49:45;;;;;;;11.00;9.73;;;;;;;25.17;67.13;64602.06;5057498;28;20232;-76
2023/06/14 10:52:23;;;;;;;10.57;9.48;;;;;;;25.44;65.55;64629.88;5054353;28;20505;-77
2023/06/14 10:55:14;;;;;;;9.73;8.80;;;;;;;25.69;62.14;64659.19;5048943;28;20244;-76
2023/06/14 10:57:45;;;;;;;12.05;9.68;;;;;;;25.78;61.66;64668.09;5061930;28;20223;-76
2023/06/14 11:00:15;;;;;;;9.63;8.63;;;;;;;25.93;60.18;64686.94;5063146;28;20261;-74
2023/06/14 11:03:34;;;;;;;10.05;8.20;;;;;;;25.68;60.29;64658.13;5066774;28;20220;-76
2023/06/14 11:06:01;;;;;;;10.18;8.23;;;;;;;24.82;68.87;64563.34;5076021;28;20250;-76
2023/06/14 11:09:11;;;;;;;9.75;8.80;;;;;;;24.81;64.31;64561.75;5048711;28;20239;-75
2023/06/14 11:11:39;;;;;;;10.23;9.23;;;;;;;24.69;69.10;64554.41;5052368;28;20228;-76
2023/06/14 11:14:08;;;;;;;10.23;9.02;;;;;;;24.85;66.59;64571.19;5055543;28;20287;-75
2023/06/14 11:16:35;;;;;;;10.38;9.23;;;;;;;25.02;65.84;64592.09;5065664;28;20201;-76
2023/06/14 11:19:04;;;;;;;9.77;8.88;;;;;;;24.98;65.10;64585.31;5068227;28;20217;-77
2023/06/14 11:21:33;;;;;;;9.02;8.18;;;;;;;24.98;66.30;64587.38;5067210;28;20198;-75
2023/06/14 11:24:01;;;;;;;8.18;7.22;;;;;;;25.52;64.20;64641.38;5067496;28;20280;-76
2023/06/14 11:26:28;;;;;;;7.90;7.05;;;;;;;25.78;59.59;64670.69;5081649;28;20232;-77
2023/06/14 11:29:00;;;;;;;9.40;8.10;;;;;;;25.92;58.63;64683.28;5067297;28;20240;-76
2023/06/14 11:31:31;;;;;;;8.18;7.38;;;;;;;25.61;60.06;64650.28;5060883;28;20212;-75
2023/06/14 11:33:59;;;;;;;8.43;7.65;;;;;;;25.13;60.35;64598.41;5059919;28;20279;-76
2023/06/14 11:36:29;;;;;;;10.38;7.95;;;;;;;24.99;62.56;64585.81;5086904;28;20280;-75
2023/06/14 11:39:00;;;;;;;8.32;7.63;;;;;;;24.88;64.70;64577.44;5090263;28;20264;-75
2023/06/14 11:41:27;;;;;;;7.78;7.07;;;;;;;24.76;63.99;64564.88;5087256;28;20215;-77